sensor_id;sensor_type;location;lat;lon;timestamp;P1;durP1;ratioP1;P2;durP2;ratioP2
16450;SDS011;12243;42.708;23.310;2022-11-14T00:00:13;75.43;;;46.40;;
16450;SDS011;12243;42.708;23.310;2022-11-14T00:02:59;75.57;;;46.03;;
16450;SDS011;12243;42.708;23.310;2022-11-14T00:05:46;80.10;;;47.47;;
16450;SDS011;12243;42.708;23.310;2022-11-14T00:08:31;76.20;;;45.97;;
16450;SDS011;12243;42.708;23.310;2022-11-14T00:11:17;75.37;;;45.27;;
16450;SDS011;12243;42.708;23.310;2022-11-14T00:14:04;74.00;;;45.07;;
16450;SDS011;12243;42.708;23.310;2022-11-14T00:16:50;77.07;;;44.80;;
16450;SDS011;12243;42.708;23.310;2022-11-14T00:19:35;75.83;;;44.80;;
16450;SDS011;12243;42.708;23.310;2022-11-14T00:22:21;74.83;;;44.63;;
16450;SDS011;12243;42.708;23.310;2022-11-14T00:25:06;83.23;;;45.60;;
16450;SDS011;12243;42.708;23.310;2022-11-14T00:27:55;69.43;;;42.43;;
16450;SDS011;12243;42.708;23.310;2022-11-14T00:30:44;78.17;;;45.07;;
16450;SDS011;12243;42.708;23.310;2022-11-14T00:33:31;80.50;;;46.67;;
16450;SDS011;12243;42.708;23.310;2022-11-14T00:36:16;84.43;;;47.73;;
16450;SDS011;12243;42.708;23.310;2022-11-14T00:39:02;76.70;;;45.13;;
16450;SDS011;12243;42.708;23.310;2022-11-14T00:41:47;76.30;;;45.93;;
16450;SDS011;12243;42.708;23.310;2022-11-14T00:44:33;72.93;;;44.77;;
16450;SDS011;12243;42.708;23.310;2022-11-14T00:47:19;73.17;;;44.30;;
16450;SDS011;12243;42.708;23.310;2022-11-14T00:50:05;74.10;;;46.00;;
16450;SDS011;12243;42.708;23.310;2022-11-14T00:52:51;82.90;;;46.20;;
16450;SDS011;12243;42.708;23.310;2022-11-14T00:55:36;78.53;;;46.80;;
16450;SDS011;12243;42.708;23.310;2022-11-14T00:58:22;79.93;;;46.93;;
16450;SDS011;12243;42.708;23.310;2022-11-14T01:01:08;75.63;;;45.63;;
16450;SDS011;12243;42.708;23.310;2022-11-14T01:03:55;79.40;;;46.67;;
16450;SDS011;12243;42.708;23.310;2022-11-14T01:06:40;75.27;;;43.70;;
16450;SDS011;12243;42.708;23.310;2022-11-14T01:09:26;74.63;;;41.50;;
16450;SDS011;12243;42.708;23.310;2022-11-14T01:12:11;69.43;;;42.00;;
16450;SDS011;12243;42.708;23.310;2022-11-14T01:14:57;74.50;;;43.63;;
16450;SDS011;12243;42.708;23.310;2022-11-14T01:17:42;68.80;;;40.80;;
16450;SDS011;12243;42.708;23.310;2022-11-14T01:20:29;71.43;;;41.13;;
16450;SDS011;12243;42.708;23.310;2022-11-14T01:23:15;65.80;;;40.53;;
16450;SDS011;12243;42.708;23.310;2022-11-14T01:26:01;74.30;;;41.83;;
16450;SDS011;12243;42.708;23.310;2022-11-14T01:28:47;69.17;;;39.10;;
16450;SDS011;12243;42.708;23.310;2022-11-14T01:31:32;72.00;;;40.83;;
16450;SDS011;12243;42.708;23.310;2022-11-14T01:34:18;74.77;;;42.93;;
16450;SDS011;12243;42.708;23.310;2022-11-14T01:37:05;72.47;;;41.10;;
16450;SDS011;12243;42.708;23.310;2022-11-14T01:39:50;71.00;;;42.47;;
16450;SDS011;12243;42.708;23.310;2022-11-14T01:42:35;77.40;;;43.53;;
16450;SDS011;12243;42.708;23.310;2022-11-14T01:45:44;70.83;;;41.97;;
16450;SDS011;12243;42.708;23.310;2022-11-14T01:48:36;66.60;;;39.33;;
16450;SDS011;12243;42.708;23.310;2022-11-14T01:51:26;68.23;;;38.07;;
16450;SDS011;12243;42.708;23.310;2022-11-14T01:54:17;73.10;;;40.73;;
16450;SDS011;12243;42.708;23.310;2022-11-14T01:57:06;64.90;;;38.73;;
16450;SDS011;12243;42.708;23.310;2022-11-14T01:59:54;68.93;;;38.03;;
16450;SDS011;12243;42.708;23.310;2022-11-14T02:02:43;71.27;;;39.37;;
16450;SDS011;12243;42.708;23.310;2022-11-14T02:05:28;81.47;;;43.90;;
16450;SDS011;12243;42.708;23.310;2022-11-14T02:08:15;67.07;;;40.80;;
16450;SDS011;12243;42.708;23.310;2022-11-14T02:11:03;69.53;;;41.80;;
16450;SDS011;12243;42.708;23.310;2022-11-14T02:13:49;71.87;;;41.93;;
16450;SDS011;12243;42.708;23.310;2022-11-14T02:16:35;71.40;;;41.83;;
16450;SDS011;12243;42.708;23.310;2022-11-14T02:19:22;74.70;;;41.20;;
16450;SDS011;12243;42.708;23.310;2022-11-14T02:22:09;74.03;;;42.23;;
16450;SDS011;12243;42.708;23.310;2022-11-14T02:24:55;78.53;;;43.43;;
16450;SDS011;12243;42.708;23.310;2022-11-14T02:27:40;78.67;;;44.13;;
16450;SDS011;12243;42.708;23.310;2022-11-14T02:30:26;72.17;;;41.13;;
16450;SDS011;12243;42.708;23.310;2022-11-14T02:33:11;72.63;;;40.27;;
16450;SDS011;12243;42.708;23.310;2022-11-14T02:35:57;67.97;;;38.43;;
16450;SDS011;12243;42.708;23.310;2022-11-14T02:38:43;63.33;;;38.27;;
16450;SDS011;12243;42.708;23.310;2022-11-14T02:41:29;63.87;;;36.23;;
16450;SDS011;12243;42.708;23.310;2022-11-14T02:44:14;62.70;;;34.63;;
16450;SDS011;12243;42.708;23.310;2022-11-14T02:47:00;58.63;;;33.13;;
16450;SDS011;12243;42.708;23.310;2022-11-14T02:49:45;52.90;;;32.17;;
16450;SDS011;12243;42.708;23.310;2022-11-14T02:52:31;55.07;;;32.90;;
16450;SDS011;12243;42.708;23.310;2022-11-14T02:55:18;52.57;;;31.80;;
16450;SDS011;12243;42.708;23.310;2022-11-14T02:58:03;51.63;;;31.97;;
16450;SDS011;12243;42.708;23.310;2022-11-14T03:00:49;49.93;;;30.43;;
16450;SDS011;12243;42.708;23.310;2022-11-14T03:03:34;56.60;;;32.30;;
16450;SDS011;12243;42.708;23.310;2022-11-14T03:06:20;54.83;;;31.10;;
16450;SDS011;12243;42.708;23.310;2022-11-14T03:09:05;51.77;;;29.63;;
16450;SDS011;12243;42.708;23.310;2022-11-14T03:11:52;56.30;;;30.80;;
16450;SDS011;12243;42.708;23.310;2022-11-14T03:14:37;50.07;;;30.63;;
16450;SDS011;12243;42.708;23.310;2022-11-14T03:17:23;48.60;;;30.13;;
16450;SDS011;12243;42.708;23.310;2022-11-14T03:20:08;53.43;;;29.97;;
16450;SDS011;12243;42.708;23.310;2022-11-14T03:22:54;50.43;;;29.23;;
16450;SDS011;12243;42.708;23.310;2022-11-14T03:25:40;48.70;;;29.70;;
16450;SDS011;12243;42.708;23.310;2022-11-14T03:28:27;53.10;;;29.50;;
16450;SDS011;12243;42.708;23.310;2022-11-14T03:31:12;56.00;;;30.27;;
16450;SDS011;12243;42.708;23.310;2022-11-14T03:33:58;53.00;;;30.33;;
16450;SDS011;12243;42.708;23.310;2022-11-14T03:36:44;51.40;;;29.40;;
16450;SDS011;12243;42.708;23.310;2022-11-14T03:39:29;54.80;;;30.83;;
16450;SDS011;12243;42.708;23.310;2022-11-14T03:42:15;54.87;;;29.10;;
16450;SDS011;12243;42.708;23.310;2022-11-14T03:45:02;56.20;;;31.20;;
16450;SDS011;12243;42.708;23.310;2022-11-14T03:47:48;52.20;;;29.03;;
16450;SDS011;12243;42.708;23.310;2022-11-14T03:50:33;53.57;;;29.67;;
16450;SDS011;12243;42.708;23.310;2022-11-14T03:53:18;56.20;;;31.03;;
16450;SDS011;12243;42.708;23.310;2022-11-14T03:56:04;55.87;;;30.67;;
16450;SDS011;12243;42.708;23.310;2022-11-14T03:58:50;52.93;;;30.23;;
16450;SDS011;12243;42.708;23.310;2022-11-14T04:01:37;53.23;;;28.80;;
16450;SDS011;12243;42.708;23.310;2022-11-14T04:04:22;55.10;;;30.33;;
16450;SDS011;12243;42.708;23.310;2022-11-14T04:07:08;54.17;;;28.83;;
16450;SDS011;12243;42.708;23.310;2022-11-14T04:09:54;58.33;;;29.40;;
16450;SDS011;12243;42.708;23.310;2022-11-14T04:12:39;54.53;;;31.23;;
16450;SDS011;12243;42.708;23.310;2022-11-14T04:15:24;48.40;;;28.53;;
16450;SDS011;12243;42.708;23.310;2022-11-14T04:18:11;55.93;;;30.87;;
16450;SDS011;12243;42.708;23.310;2022-11-14T04:20:57;63.93;;;32.37;;
16450;SDS011;12243;42.708;23.310;2022-11-14T04:23:42;52.57;;;29.77;;
16450;SDS011;12243;42.708;23.310;2022-11-14T04:26:28;56.47;;;29.70;;
16450;SDS011;12243;42.708;23.310;2022-11-14T04:29:13;49.50;;;28.20;;
16450;SDS011;12243;42.708;23.310;2022-11-14T04:31:59;62.40;;;31.33;;
16450;SDS011;12243;42.708;23.310;2022-11-14T04:34:46;60.90;;;31.83;;
16450;SDS011;12243;42.708;23.310;2022-11-14T04:37:31;70.73;;;34.63;;
16450;SDS011;12243;42.708;23.310;2022-11-14T04:40:17;67.53;;;33.63;;
16450;SDS011;12243;42.708;23.310;2022-11-14T04:43:04;80.17;;;36.50;;
16450;SDS011;12243;42.708;23.310;2022-11-14T04:45:50;82.50;;;35.20;;
16450;SDS011;12243;42.708;23.310;2022-11-14T04:48:35;77.30;;;34.63;;
16450;SDS011;12243;42.708;23.310;2022-11-14T04:51:22;80.97;;;36.33;;
16450;SDS011;12243;42.708;23.310;2022-11-14T04:54:07;80.77;;;35.20;;
16450;SDS011;12243;42.708;23.310;2022-11-14T04:56:52;105.03;;;36.10;;
16450;SDS011;12243;42.708;23.310;2022-11-14T04:59:38;95.07;;;36.00;;
16450;SDS011;12243;42.708;23.310;2022-11-14T05:02:23;118.50;;;37.23;;
16450;SDS011;12243;42.708;23.310;2022-11-14T05:05:09;87.67;;;35.80;;
16450;SDS011;12243;42.708;23.310;2022-11-14T05:07:56;113.37;;;34.63;;
16450;SDS011;12243;42.708;23.310;2022-11-14T05:10:42;129.53;;;38.97;;
16450;SDS011;12243;42.708;23.310;2022-11-14T05:13:27;97.87;;;38.50;;
16450;SDS011;12243;42.708;23.310;2022-11-14T05:16:13;110.10;;;39.93;;
16450;SDS011;12243;42.708;23.310;2022-11-14T05:18:59;93.80;;;38.87;;
16450;SDS011;12243;42.708;23.310;2022-11-14T05:21:44;112.00;;;39.10;;
16450;SDS011;12243;42.708;23.310;2022-11-14T05:24:31;144.97;;;40.27;;
16450;SDS011;12243;42.708;23.310;2022-11-14T05:27:17;134.53;;;40.77;;
16450;SDS011;12243;42.708;23.310;2022-11-14T05:30:02;113.90;;;39.77;;
16450;SDS011;12243;42.708;23.310;2022-11-14T05:32:50;126.77;;;39.47;;
16450;SDS011;12243;42.708;23.310;2022-11-14T05:35:35;124.67;;;38.90;;
16450;SDS011;12243;42.708;23.310;2022-11-14T05:38:20;99.53;;;38.87;;
16450;SDS011;12243;42.708;23.310;2022-11-14T05:41:07;117.70;;;37.23;;
16450;SDS011;12243;42.708;23.310;2022-11-14T05:43:53;128.37;;;38.93;;
16450;SDS011;12243;42.708;23.310;2022-11-14T05:46:39;99.93;;;34.43;;
16450;SDS011;12243;42.708;23.310;2022-11-14T05:49:24;90.70;;;37.40;;
16450;SDS011;12243;42.708;23.310;2022-11-14T05:52:10;189.00;;;40.47;;
16450;SDS011;12243;42.708;23.310;2022-11-14T05:54:56;119.97;;;41.70;;
16450;SDS011;12243;42.708;23.310;2022-11-14T05:57:42;131.33;;;42.57;;
16450;SDS011;12243;42.708;23.310;2022-11-14T06:00:28;134.83;;;42.50;;
16450;SDS011;12243;42.708;23.310;2022-11-14T06:03:13;105.70;;;41.17;;
16450;SDS011;12243;42.708;23.310;2022-11-14T06:05:59;187.27;;;42.67;;
16450;SDS011;12243;42.708;23.310;2022-11-14T06:08:45;123.30;;;42.10;;
16450;SDS011;12243;42.708;23.310;2022-11-14T06:11:31;111.33;;;42.20;;
16450;SDS011;12243;42.708;23.310;2022-11-14T06:14:17;92.93;;;41.93;;
16450;SDS011;12243;42.708;23.310;2022-11-14T06:17:03;217.80;;;42.07;;
16450;SDS011;12243;42.708;23.310;2022-11-14T06:19:48;135.77;;;39.87;;
16450;SDS011;12243;42.708;23.310;2022-11-14T06:22:34;150.37;;;38.80;;
16450;SDS011;12243;42.708;23.310;2022-11-14T06:25:19;121.23;;;40.27;;
16450;SDS011;12243;42.708;23.310;2022-11-14T06:28:05;146.13;;;38.93;;
16450;SDS011;12243;42.708;23.310;2022-11-14T06:30:52;148.70;;;39.30;;
16450;SDS011;12243;42.708;23.310;2022-11-14T06:33:40;78.30;;;38.47;;
16450;SDS011;12243;42.708;23.310;2022-11-14T06:36:26;102.33;;;38.73;;
16450;SDS011;12243;42.708;23.310;2022-11-14T06:39:13;93.87;;;40.93;;
16450;SDS011;12243;42.708;23.310;2022-11-14T06:41:59;205.80;;;35.93;;
16450;SDS011;12243;42.708;23.310;2022-11-14T06:44:44;122.87;;;34.10;;
16450;SDS011;12243;42.708;23.310;2022-11-14T06:47:31;154.70;;;36.87;;
16450;SDS011;12243;42.708;23.310;2022-11-14T06:50:16;72.63;;;35.17;;
16450;SDS011;12243;42.708;23.310;2022-11-14T06:53:02;85.67;;;35.60;;
16450;SDS011;12243;42.708;23.310;2022-11-14T06:55:54;77.77;;;38.00;;
16450;SDS011;12243;42.708;23.310;2022-11-14T06:58:41;78.43;;;35.00;;
16450;SDS011;12243;42.708;23.310;2022-11-14T07:01:29;80.43;;;31.37;;
16450;SDS011;12243;42.708;23.310;2022-11-14T07:04:16;76.27;;;32.80;;
16450;SDS011;12243;42.708;23.310;2022-11-14T07:07:01;62.07;;;33.07;;
16450;SDS011;12243;42.708;23.310;2022-11-14T07:09:46;78.27;;;40.03;;
16450;SDS011;12243;42.708;23.310;2022-11-14T07:12:32;63.27;;;32.47;;
16450;SDS011;12243;42.708;23.310;2022-11-14T07:15:18;61.33;;;31.07;;
16450;SDS011;12243;42.708;23.310;2022-11-14T07:18:03;49.00;;;27.37;;
16450;SDS011;12243;42.708;23.310;2022-11-14T07:20:50;44.93;;;27.33;;
16450;SDS011;12243;42.708;23.310;2022-11-14T07:23:41;47.87;;;27.07;;
16450;SDS011;12243;42.708;23.310;2022-11-14T07:26:27;48.17;;;27.90;;
16450;SDS011;12243;42.708;23.310;2022-11-14T07:29:12;50.07;;;29.20;;
16450;SDS011;12243;42.708;23.310;2022-11-14T07:31:58;53.10;;;28.30;;
16450;SDS011;12243;42.708;23.310;2022-11-14T07:34:43;50.40;;;30.43;;
16450;SDS011;12243;42.708;23.310;2022-11-14T07:37:30;45.60;;;28.67;;
16450;SDS011;12243;42.708;23.310;2022-11-14T07:40:16;49.13;;;30.50;;
16450;SDS011;12243;42.708;23.310;2022-11-14T07:43:02;50.83;;;28.97;;
16450;SDS011;12243;42.708;23.310;2022-11-14T07:45:48;51.90;;;30.67;;
16450;SDS011;12243;42.708;23.310;2022-11-14T07:48:33;56.60;;;33.70;;
16450;SDS011;12243;42.708;23.310;2022-11-14T07:51:19;48.97;;;29.87;;
16450;SDS011;12243;42.708;23.310;2022-11-14T07:54:08;62.63;;;33.50;;
16450;SDS011;12243;42.708;23.310;2022-11-14T07:56:54;54.30;;;33.07;;
16450;SDS011;12243;42.708;23.310;2022-11-14T07:59:40;47.90;;;30.67;;
16450;SDS011;12243;42.708;23.310;2022-11-14T08:02:26;58.33;;;35.53;;
16450;SDS011;12243;42.708;23.310;2022-11-14T08:05:11;48.30;;;31.57;;
16450;SDS011;12243;42.708;23.310;2022-11-14T08:07:57;60.97;;;33.37;;
16450;SDS011;12243;42.708;23.310;2022-11-14T08:10:44;53.67;;;33.40;;
16450;SDS011;12243;42.708;23.310;2022-11-14T08:13:29;60.13;;;32.90;;
16450;SDS011;12243;42.708;23.310;2022-11-14T08:16:15;54.53;;;33.73;;
16450;SDS011;12243;42.708;23.310;2022-11-14T08:19:01;52.93;;;32.27;;
16450;SDS011;12243;42.708;23.310;2022-11-14T08:21:46;59.93;;;33.83;;
16450;SDS011;12243;42.708;23.310;2022-11-14T08:24:32;59.73;;;35.97;;
16450;SDS011;12243;42.708;23.310;2022-11-14T08:27:19;60.13;;;33.70;;
16450;SDS011;12243;42.708;23.310;2022-11-14T08:30:05;65.77;;;36.10;;
16450;SDS011;12243;42.708;23.310;2022-11-14T08:32:51;64.40;;;36.47;;
16450;SDS011;12243;42.708;23.310;2022-11-14T08:35:37;57.17;;;34.47;;
16450;SDS011;12243;42.708;23.310;2022-11-14T08:38:23;64.20;;;35.13;;
16450;SDS011;12243;42.708;23.310;2022-11-14T08:41:08;55.30;;;33.67;;
16450;SDS011;12243;42.708;23.310;2022-11-14T08:43:55;70.20;;;41.13;;
16450;SDS011;12243;42.708;23.310;2022-11-14T08:46:41;61.60;;;37.50;;
16450;SDS011;12243;42.708;23.310;2022-11-14T08:49:26;53.53;;;34.60;;
16450;SDS011;12243;42.708;23.310;2022-11-14T08:52:12;52.30;;;33.10;;
16450;SDS011;12243;42.708;23.310;2022-11-14T08:54:57;50.40;;;32.97;;
16450;SDS011;12243;42.708;23.310;2022-11-14T08:57:43;54.87;;;34.53;;
16450;SDS011;12243;42.708;23.310;2022-11-14T09:00:29;50.93;;;32.47;;
16450;SDS011;12243;42.708;23.310;2022-11-14T09:03:15;52.43;;;34.87;;
16450;SDS011;12243;42.708;23.310;2022-11-14T09:06:01;52.23;;;33.93;;
16450;SDS011;12243;42.708;23.310;2022-11-14T09:08:47;57.00;;;35.57;;
16450;SDS011;12243;42.708;23.310;2022-11-14T09:11:33;51.83;;;34.60;;
16450;SDS011;12243;42.708;23.310;2022-11-14T09:14:19;56.73;;;35.80;;
16450;SDS011;12243;42.708;23.310;2022-11-14T09:17:06;55.10;;;36.00;;
16450;SDS011;12243;42.708;23.310;2022-11-14T09:19:51;53.77;;;34.80;;
16450;SDS011;12243;42.708;23.310;2022-11-14T09:22:37;52.77;;;34.93;;
16450;SDS011;12243;42.708;23.310;2022-11-14T09:25:22;62.03;;;39.87;;
16450;SDS011;12243;42.708;23.310;2022-11-14T09:28:09;54.67;;;36.27;;
16450;SDS011;12243;42.708;23.310;2022-11-14T09:30:58;54.57;;;37.13;;
16450;SDS011;12243;42.708;23.310;2022-11-14T09:33:46;58.80;;;37.37;;
16450;SDS011;12243;42.708;23.310;2022-11-14T09:36:31;59.43;;;37.67;;
16450;SDS011;12243;42.708;23.310;2022-11-14T09:39:17;66.80;;;39.00;;
16450;SDS011;12243;42.708;23.310;2022-11-14T09:42:05;59.90;;;39.13;;
16450;SDS011;12243;42.708;23.310;2022-11-14T09:45:08;67.07;;;41.33;;
16450;SDS011;12243;42.708;23.310;2022-11-14T09:47:59;64.37;;;40.70;;
16450;SDS011;12243;42.708;23.310;2022-11-14T09:50:52;67.47;;;43.63;;
16450;SDS011;12243;42.708;23.310;2022-11-14T09:53:51;70.00;;;42.83;;
16450;SDS011;12243;42.708;23.310;2022-11-14T09:56:41;66.13;;;43.80;;
16450;SDS011;12243;42.708;23.310;2022-11-14T09:59:26;72.57;;;44.73;;
16450;SDS011;12243;42.708;23.310;2022-11-14T10:02:16;69.97;;;45.93;;
16450;SDS011;12243;42.708;23.310;2022-11-14T10:05:17;70.53;;;44.27;;
16450;SDS011;12243;42.708;23.310;2022-11-14T10:08:22;79.53;;;47.07;;
16450;SDS011;12243;42.708;23.310;2022-11-14T10:11:21;70.27;;;44.90;;
16450;SDS011;12243;42.708;23.310;2022-11-14T10:17:39;70.27;;;44.07;;
16450;SDS011;12243;42.708;23.310;2022-11-14T10:20:44;78.93;;;46.40;;
16450;SDS011;12243;42.708;23.310;2022-11-14T10:23:38;74.80;;;45.30;;
16450;SDS011;12243;42.708;23.310;2022-11-14T10:26:36;76.43;;;45.63;;
16450;SDS011;12243;42.708;23.310;2022-11-14T10:32:56;70.67;;;44.17;;
16450;SDS011;12243;42.708;23.310;2022-11-14T10:35:52;71.43;;;44.10;;
16450;SDS011;12243;42.708;23.310;2022-11-14T10:38:44;68.80;;;43.37;;
16450;SDS011;12243;42.708;23.310;2022-11-14T10:41:35;68.80;;;42.73;;
16450;SDS011;12243;42.708;23.310;2022-11-14T10:44:23;71.80;;;43.37;;
16450;SDS011;12243;42.708;23.310;2022-11-14T10:47:13;68.20;;;41.60;;
16450;SDS011;12243;42.708;23.310;2022-11-14T10:50:03;73.07;;;45.30;;
16450;SDS011;12243;42.708;23.310;2022-11-14T10:53:04;77.37;;;45.60;;
16450;SDS011;12243;42.708;23.310;2022-11-14T10:56:11;70.63;;;43.03;;
16450;SDS011;12243;42.708;23.310;2022-11-14T10:58:58;72.90;;;44.40;;
16450;SDS011;12243;42.708;23.310;2022-11-14T11:01:52;70.80;;;44.47;;
16450;SDS011;12243;42.708;23.310;2022-11-14T11:04:40;69.67;;;43.83;;
16450;SDS011;12243;42.708;23.310;2022-11-14T11:07:29;66.40;;;43.00;;
16450;SDS011;12243;42.708;23.310;2022-11-14T11:10:34;69.57;;;43.30;;
16450;SDS011;12243;42.708;23.310;2022-11-14T11:13:52;67.13;;;44.03;;
16450;SDS011;12243;42.708;23.310;2022-11-14T11:16:45;66.00;;;43.27;;
16450;SDS011;12243;42.708;23.310;2022-11-14T11:19:34;70.30;;;45.27;;
16450;SDS011;12243;42.708;23.310;2022-11-14T11:22:28;74.73;;;46.40;;
16450;SDS011;12243;42.708;23.310;2022-11-14T11:25:21;65.33;;;43.60;;
16450;SDS011;12243;42.708;23.310;2022-11-14T11:28:10;73.87;;;46.53;;
16450;SDS011;12243;42.708;23.310;2022-11-14T11:30:59;75.10;;;45.97;;
16450;SDS011;12243;42.708;23.310;2022-11-14T11:33:45;75.83;;;46.10;;
16450;SDS011;12243;42.708;23.310;2022-11-14T11:36:31;73.43;;;45.63;;
16450;SDS011;12243;42.708;23.310;2022-11-14T11:39:25;75.07;;;48.50;;
16450;SDS011;12243;42.708;23.310;2022-11-14T11:42:15;71.73;;;46.83;;
16450;SDS011;12243;42.708;23.310;2022-11-14T11:45:04;99.30;;;55.57;;
16450;SDS011;12243;42.708;23.310;2022-11-14T11:47:59;78.17;;;49.30;;
16450;SDS011;12243;42.708;23.310;2022-11-14T11:50:52;70.90;;;47.93;;
16450;SDS011;12243;42.708;23.310;2022-11-14T11:53:40;78.43;;;49.67;;
16450;SDS011;12243;42.708;23.310;2022-11-14T11:56:29;75.73;;;47.77;;
16450;SDS011;12243;42.708;23.310;2022-11-14T11:59:18;74.90;;;50.33;;
16450;SDS011;12243;42.708;23.310;2022-11-14T12:02:15;82.57;;;53.00;;
16450;SDS011;12243;42.708;23.310;2022-11-14T12:05:11;69.03;;;45.27;;
16450;SDS011;12243;42.708;23.310;2022-11-14T12:08:00;77.50;;;48.43;;
16450;SDS011;12243;42.708;23.310;2022-11-14T12:10:49;68.93;;;47.03;;
16450;SDS011;12243;42.708;23.310;2022-11-14T12:20:27;75.00;;;47.57;;
16450;SDS011;12243;42.708;23.310;2022-11-14T12:23:33;76.83;;;48.90;;
16450;SDS011;12243;42.708;23.310;2022-11-14T12:26:43;76.33;;;48.07;;
16450;SDS011;12243;42.708;23.310;2022-11-14T12:33:00;71.27;;;47.80;;
16450;SDS011;12243;42.708;23.310;2022-11-14T12:35:53;70.20;;;47.50;;
16450;SDS011;12243;42.708;23.310;2022-11-14T12:38:42;77.90;;;47.10;;
16450;SDS011;12243;42.708;23.310;2022-11-14T12:41:31;71.53;;;48.97;;
16450;SDS011;12243;42.708;23.310;2022-11-14T12:44:29;70.33;;;48.33;;
16450;SDS011;12243;42.708;23.310;2022-11-14T12:47:18;76.93;;;47.57;;
16450;SDS011;12243;42.708;23.310;2022-11-14T12:50:28;73.47;;;48.43;;
16450;SDS011;12243;42.708;23.310;2022-11-14T12:53:40;68.60;;;47.77;;
16450;SDS011;12243;42.708;23.310;2022-11-14T12:59:48;68.43;;;48.67;;
16450;SDS011;12243;42.708;23.310;2022-11-14T13:02:47;71.10;;;47.70;;
16450;SDS011;12243;42.708;23.310;2022-11-14T13:05:54;79.07;;;50.67;;
16450;SDS011;12243;42.708;23.310;2022-11-14T13:12:28;71.03;;;47.53;;
16450;SDS011;12243;42.708;23.310;2022-11-14T13:15:34;70.47;;;46.47;;
16450;SDS011;12243;42.708;23.310;2022-11-14T13:18:49;71.93;;;47.63;;
16450;SDS011;12243;42.708;23.310;2022-11-14T13:25:18;74.83;;;47.10;;
16450;SDS011;12243;42.708;23.310;2022-11-14T13:31:45;67.87;;;46.47;;
16450;SDS011;12243;42.708;23.310;2022-11-14T13:34:42;74.57;;;47.30;;
16450;SDS011;12243;42.708;23.310;2022-11-14T13:37:47;74.77;;;47.33;;
16450;SDS011;12243;42.708;23.310;2022-11-14T13:40:45;65.97;;;46.17;;
16450;SDS011;12243;42.708;23.310;2022-11-14T13:43:42;72.07;;;45.33;;
16450;SDS011;12243;42.708;23.310;2022-11-14T13:46:43;70.47;;;46.97;;
16450;SDS011;12243;42.708;23.310;2022-11-14T13:49:51;71.73;;;45.80;;
16450;SDS011;12243;42.708;23.310;2022-11-14T13:52:43;65.73;;;45.13;;
16450;SDS011;12243;42.708;23.310;2022-11-14T13:55:31;71.97;;;48.57;;
16450;SDS011;12243;42.708;23.310;2022-11-14T13:58:32;75.03;;;47.03;;
16450;SDS011;12243;42.708;23.310;2022-11-14T14:01:41;75.37;;;48.90;;
16450;SDS011;12243;42.708;23.310;2022-11-14T14:04:39;79.47;;;50.90;;
16450;SDS011;12243;42.708;23.310;2022-11-14T14:07:46;71.57;;;48.10;;
16450;SDS011;12243;42.708;23.310;2022-11-14T14:10:40;76.00;;;47.10;;
16450;SDS011;12243;42.708;23.310;2022-11-14T14:13:36;68.20;;;45.43;;
16450;SDS011;12243;42.708;23.310;2022-11-14T14:16:38;74.33;;;46.53;;
16450;SDS011;12243;42.708;23.310;2022-11-14T14:19:34;71.93;;;46.50;;
16450;SDS011;12243;42.708;23.310;2022-11-14T14:22:32;76.80;;;47.47;;
16450;SDS011;12243;42.708;23.310;2022-11-14T14:25:24;69.50;;;47.63;;
16450;SDS011;12243;42.708;23.310;2022-11-14T14:28:16;77.77;;;47.97;;
16450;SDS011;12243;42.708;23.310;2022-11-14T14:31:09;74.20;;;47.53;;
16450;SDS011;12243;42.708;23.310;2022-11-14T14:33:58;71.10;;;46.57;;
16450;SDS011;12243;42.708;23.310;2022-11-14T14:36:47;72.37;;;47.67;;
16450;SDS011;12243;42.708;23.310;2022-11-14T14:39:34;68.57;;;45.67;;
16450;SDS011;12243;42.708;23.310;2022-11-14T14:42:19;68.70;;;44.80;;
16450;SDS011;12243;42.708;23.310;2022-11-14T14:45:09;70.00;;;44.57;;
16450;SDS011;12243;42.708;23.310;2022-11-14T14:48:00;70.47;;;44.73;;
16450;SDS011;12243;42.708;23.310;2022-11-14T14:50:50;76.03;;;47.83;;
16450;SDS011;12243;42.708;23.310;2022-11-14T14:53:37;74.50;;;45.57;;
16450;SDS011;12243;42.708;23.310;2022-11-14T14:56:23;75.53;;;44.83;;
16450;SDS011;12243;42.708;23.310;2022-11-14T14:59:15;78.37;;;45.60;;
16450;SDS011;12243;42.708;23.310;2022-11-14T15:02:02;89.63;;;48.83;;
16450;SDS011;12243;42.708;23.310;2022-11-14T15:04:48;75.97;;;47.47;;
16450;SDS011;12243;42.708;23.310;2022-11-14T15:07:35;79.70;;;47.27;;
16450;SDS011;12243;42.708;23.310;2022-11-14T15:10:24;83.20;;;46.97;;
16450;SDS011;12243;42.708;23.310;2022-11-14T15:13:13;76.20;;;47.43;;
16450;SDS011;12243;42.708;23.310;2022-11-14T15:16:01;76.57;;;46.20;;
16450;SDS011;12243;42.708;23.310;2022-11-14T15:18:47;78.13;;;44.80;;
16450;SDS011;12243;42.708;23.310;2022-11-14T15:21:35;77.53;;;46.90;;
16450;SDS011;12243;42.708;23.310;2022-11-14T15:24:22;82.87;;;45.73;;
16450;SDS011;12243;42.708;23.310;2022-11-14T15:27:10;81.40;;;45.77;;
16450;SDS011;12243;42.708;23.310;2022-11-14T15:29:59;85.40;;;48.67;;
16450;SDS011;12243;42.708;23.310;2022-11-14T15:32:46;79.80;;;46.93;;
16450;SDS011;12243;42.708;23.310;2022-11-14T15:35:34;83.63;;;50.93;;
16450;SDS011;12243;42.708;23.310;2022-11-14T15:38:21;88.23;;;50.70;;
16450;SDS011;12243;42.708;23.310;2022-11-14T15:41:09;85.03;;;53.33;;
16450;SDS011;12243;42.708;23.310;2022-11-14T15:44:01;117.00;;;63.43;;
16450;SDS011;12243;42.708;23.310;2022-11-14T15:46:48;105.03;;;63.40;;
16450;SDS011;12243;42.708;23.310;2022-11-14T15:49:34;100.50;;;61.50;;
16450;SDS011;12243;42.708;23.310;2022-11-14T15:52:21;103.33;;;61.13;;
16450;SDS011;12243;42.708;23.310;2022-11-14T15:55:12;110.33;;;65.50;;
16450;SDS011;12243;42.708;23.310;2022-11-14T15:58:06;109.43;;;65.00;;
16450;SDS011;12243;42.708;23.310;2022-11-14T16:00:52;158.43;;;89.77;;
16450;SDS011;12243;42.708;23.310;2022-11-14T16:03:39;223.37;;;128.40;;
16450;SDS011;12243;42.708;23.310;2022-11-14T16:06:30;147.80;;;86.03;;
16450;SDS011;12243;42.708;23.310;2022-11-14T16:09:17;101.80;;;60.10;;
16450;SDS011;12243;42.708;23.310;2022-11-14T16:12:04;94.03;;;59.03;;
16450;SDS011;12243;42.708;23.310;2022-11-14T16:14:51;98.00;;;60.60;;
16450;SDS011;12243;42.708;23.310;2022-11-14T16:17:37;95.70;;;59.77;;
16450;SDS011;12243;42.708;23.310;2022-11-14T16:20:25;88.77;;;59.23;;
16450;SDS011;12243;42.708;23.310;2022-11-14T16:23:11;92.17;;;57.57;;
16450;SDS011;12243;42.708;23.310;2022-11-14T16:25:57;95.97;;;59.30;;
16450;SDS011;12243;42.708;23.310;2022-11-14T16:28:43;97.97;;;58.07;;
16450;SDS011;12243;42.708;23.310;2022-11-14T16:31:29;102.90;;;60.70;;
16450;SDS011;12243;42.708;23.310;2022-11-14T16:34:17;104.97;;;60.23;;
16450;SDS011;12243;42.708;23.310;2022-11-14T16:37:03;104.13;;;63.73;;
16450;SDS011;12243;42.708;23.310;2022-11-14T16:39:49;127.23;;;76.57;;